createdAt,value
2018-09-02T00:00:56.265Z,3.60
2018-09-02T00:03:24.433Z,3.40
2018-09-02T00:05:52.589Z,3.63
2018-09-02T00:08:20.739Z,3.43
2018-09-02T00:10:48.889Z,3.87
2018-09-02T00:13:17.050Z,3.47
2018-09-02T00:15:45.293Z,4.30
2018-09-02T00:18:13.469Z,3.73
2018-09-02T00:20:41.622Z,3.83
2018-09-02T00:23:09.788Z,3.53
2018-09-02T00:25:37.925Z,3.10
2018-09-02T00:28:06.082Z,3.20
2018-09-02T00:30:34.237Z,3.40
2018-09-02T00:33:02.597Z,3.10
2018-09-02T00:35:30.689Z,2.87
2018-09-02T00:37:58.874Z,3.40
2018-09-02T00:40:27.048Z,3.40
2018-09-02T00:42:55.365Z,3.13
2018-09-02T00:45:23.513Z,3.10
2018-09-02T00:47:51.727Z,2.77
2018-09-02T00:50:19.907Z,3.57
2018-09-02T00:52:48.118Z,3.10
2018-09-02T00:55:16.285Z,3.40
2018-09-02T00:57:44.480Z,3.37
2018-09-02T01:00:12.630Z,3.50
2018-09-02T01:02:40.775Z,3.13
2018-09-02T01:05:08.929Z,3.80
2018-09-02T01:07:37.106Z,3.40
2018-09-02T01:10:05.581Z,3.30
2018-09-02T01:12:33.729Z,3.30
2018-09-02T01:15:01.891Z,3.77
2018-09-02T01:17:30.042Z,3.37
2018-09-02T01:19:58.211Z,3.73
2018-09-02T01:22:26.374Z,3.90
2018-09-02T01:24:54.515Z,3.33
2018-09-02T01:27:22.667Z,3.77
2018-09-02T01:29:50.820Z,3.40
2018-09-02T01:32:19.018Z,3.03
2018-09-02T01:34:47.145Z,3.60
2018-09-02T01:37:15.276Z,3.10
2018-09-02T01:39:43.423Z,3.70
2018-09-02T01:42:11.574Z,3.67
2018-09-02T01:44:39.737Z,3.77
2018-09-02T01:47:07.895Z,3.97
2018-09-02T01:49:36.026Z,3.50
2018-09-02T01:52:04.341Z,3.00
2018-09-02T01:54:32.483Z,4.03
2018-09-02T01:57:00.605Z,4.00
2018-09-02T01:59:28.741Z,3.40
2018-09-02T02:01:56.882Z,3.23
2018-09-02T02:04:28.779Z,2.97
2018-09-02T02:06:56.975Z,3.30
2018-09-02T02:09:25.140Z,3.30
2018-09-02T02:11:53.266Z,3.70
2018-09-02T02:14:21.418Z,3.37
2018-09-02T02:16:49.553Z,3.73
2018-09-02T02:19:17.750Z,3.67
2018-09-02T02:21:45.882Z,3.73
2018-09-02T02:24:14.056Z,3.40
2018-09-02T02:26:42.219Z,3.60
2018-09-02T02:29:10.343Z,3.70
2018-09-02T02:31:38.486Z,4.03
2018-09-02T02:34:06.702Z,3.57
2018-09-02T02:36:34.827Z,4.00
2018-09-02T02:39:03.018Z,3.20
2018-09-02T02:41:31.175Z,4.03
2018-09-02T02:43:59.310Z,3.47
2018-09-02T02:46:27.447Z,4.00
2018-09-02T02:48:55.605Z,4.47
2018-09-02T02:51:23.774Z,4.00
2018-09-02T02:53:51.932Z,4.70
2018-09-02T02:56:20.082Z,4.80
2018-09-02T02:58:48.278Z,4.80
2018-09-02T03:01:16.409Z,4.70
2018-09-02T03:03:44.559Z,4.67
2018-09-02T03:06:12.717Z,5.03
2018-09-02T03:08:40.852Z,4.20
2018-09-02T03:11:08.995Z,4.10
2018-09-02T03:13:37.203Z,5.27
2018-09-02T03:16:05.742Z,5.83
2018-09-02T03:18:33.987Z,4.70
2018-09-02T03:21:02.136Z,4.70
2018-09-02T03:23:30.273Z,4.03
2018-09-02T03:25:58.415Z,4.70
2018-09-02T03:28:26.558Z,4.47
2018-09-02T03:30:54.698Z,4.90
2018-09-02T03:33:22.851Z,3.60
2018-09-02T03:35:51.010Z,4.30
2018-09-02T03:38:19.153Z,5.00
2018-09-02T03:40:47.317Z,3.90
2018-09-02T03:43:15.475Z,3.53
2018-09-02T03:45:43.663Z,5.27
2018-09-02T03:48:11.828Z,28.50
2018-09-02T03:50:39.991Z,51.70
2018-09-02T03:53:08.161Z,48.03
2018-09-02T03:55:36.349Z,23.07
2018-09-02T03:58:04.535Z,16.80
2018-09-02T04:00:32.750Z,13.70
2018-09-02T04:03:00.912Z,11.63
2018-09-02T04:05:29.057Z,10.00
2018-09-02T04:07:57.215Z,9.47
2018-09-02T04:10:25.364Z,7.73
2018-09-02T04:12:53.530Z,5.20
2018-09-02T04:15:21.704Z,6.20
2018-09-02T04:17:49.843Z,5.77
2018-09-02T04:20:23.378Z,5.47
2018-09-02T04:22:51.513Z,5.00
2018-09-02T04:25:19.674Z,4.87
2018-09-02T04:27:47.818Z,5.47
2018-09-02T04:30:15.991Z,4.83
2018-09-02T04:32:44.110Z,4.30
2018-09-02T04:35:12.275Z,4.97
2018-09-02T04:37:40.518Z,5.00
2018-09-02T04:40:08.664Z,4.10
2018-09-02T04:42:36.810Z,4.90
2018-09-02T04:45:05.047Z,5.27
2018-09-02T04:47:33.107Z,5.70
2018-09-02T04:50:09.845Z,5.10
2018-09-02T04:52:38.014Z,5.93
2018-09-02T04:55:06.182Z,5.60
2018-09-02T04:57:34.566Z,5.93
2018-09-02T05:00:02.727Z,6.30
2018-09-02T05:02:30.983Z,6.00
2018-09-02T05:04:59.170Z,6.00
2018-09-02T05:07:27.580Z,6.20
2018-09-02T05:09:55.754Z,6.90
2018-09-02T05:12:23.901Z,6.50
2018-09-02T05:14:52.402Z,6.40
2018-09-02T05:17:21.500Z,6.40
2018-09-02T05:19:49.753Z,6.20
2018-09-02T05:22:17.858Z,6.63
2018-09-02T05:24:46.332Z,6.97
2018-09-02T05:27:14.536Z,6.70
2018-09-02T05:29:42.752Z,7.20
2018-09-02T05:32:10.910Z,6.53
2018-09-02T05:34:39.064Z,6.90
2018-09-02T05:37:07.515Z,7.27
2018-09-02T05:39:35.659Z,7.97
2018-09-02T05:42:03.810Z,6.67
2018-09-02T05:44:31.956Z,6.33
2018-09-02T05:47:00.107Z,5.80
2018-09-02T05:49:28.238Z,6.70
2018-09-02T05:51:56.400Z,6.67
2018-09-02T05:54:24.526Z,6.10
2018-09-02T05:56:52.681Z,7.13
2018-09-02T05:59:20.827Z,6.10
2018-09-02T06:01:48.958Z,5.73
2018-09-02T06:04:17.138Z,6.30
2018-09-02T06:06:45.278Z,6.47
2018-09-02T06:09:13.421Z,6.37
2018-09-02T06:11:41.554Z,6.23
2018-09-02T06:14:09.770Z,6.90
2018-09-02T06:16:37.919Z,7.43
2018-09-02T06:19:06.043Z,8.00
2018-09-02T06:21:34.259Z,7.60
2018-09-02T06:24:02.407Z,7.70
2018-09-02T06:26:30.550Z,7.70
2018-09-02T06:28:58.701Z,7.57
2018-09-02T06:31:26.866Z,7.70
2018-09-02T06:33:55.039Z,8.40
2018-09-02T06:36:23.284Z,8.27
2018-09-02T06:38:51.444Z,9.43
2018-09-02T06:41:19.610Z,9.07
2018-09-02T06:43:47.765Z,8.73
2018-09-02T06:46:15.915Z,9.77
2018-09-02T06:48:44.061Z,8.63
2018-09-02T06:51:12.206Z,9.20
2018-09-02T06:53:40.366Z,9.33
2018-09-02T06:56:08.526Z,10.70
2018-09-02T06:58:36.776Z,10.93
2018-09-02T07:01:05.117Z,9.80
2018-09-02T07:03:33.359Z,9.70
2018-09-02T07:06:01.511Z,9.57
2018-09-02T07:08:29.670Z,10.17
2018-09-02T07:10:57.822Z,9.83
2018-09-02T07:13:26.002Z,8.47
2018-09-02T07:15:54.143Z,7.57
2018-09-02T07:18:22.306Z,8.67
2018-09-02T07:20:50.462Z,9.13
2018-09-02T07:23:18.602Z,9.37
2018-09-02T07:25:46.743Z,8.20
2018-09-02T07:28:14.910Z,7.67
2018-09-02T07:30:43.069Z,7.87
2018-09-02T07:33:11.245Z,8.17
2018-09-02T07:35:39.410Z,7.97
2018-09-02T07:38:07.579Z,8.57
2018-09-02T07:40:35.721Z,7.87
2018-09-02T07:43:03.869Z,8.73
2018-09-02T07:45:32.039Z,7.40
2018-09-02T07:48:00.202Z,8.37
2018-09-02T07:50:28.396Z,8.30
2018-09-02T07:52:56.536Z,7.43
2018-09-02T07:55:24.702Z,8.17
2018-09-02T07:57:52.857Z,7.47
2018-09-02T08:00:21.102Z,7.03
2018-09-02T08:02:49.256Z,6.27
2018-09-02T08:05:24.049Z,6.97
2018-09-02T08:07:52.182Z,7.27
2018-09-02T08:10:20.324Z,6.67
2018-09-02T08:12:48.580Z,7.80
2018-09-02T08:15:16.633Z,8.30
2018-09-02T08:17:44.798Z,7.07
2018-09-02T08:20:12.982Z,6.97
2018-09-02T08:22:41.122Z,6.70
2018-09-02T08:25:09.272Z,6.63
2018-09-02T08:27:37.398Z,7.67
2018-09-02T08:30:05.537Z,6.20
2018-09-02T08:32:33.676Z,6.10
2018-09-02T08:35:01.863Z,6.57
2018-09-02T08:37:30.024Z,6.20
2018-09-02T08:39:58.161Z,6.73
2018-09-02T08:42:26.307Z,6.37
2018-09-02T08:44:54.458Z,6.67
2018-09-02T08:47:22.598Z,7.00
2018-09-02T08:49:50.731Z,6.90
2018-09-02T08:52:18.878Z,6.90
2018-09-02T08:54:47.037Z,7.30
2018-09-02T08:57:15.174Z,7.13
2018-09-02T08:59:43.386Z,7.97
2018-09-02T09:02:11.537Z,7.33
2018-09-02T09:04:39.699Z,7.30
2018-09-02T09:07:07.821Z,7.27
2018-09-02T09:09:35.952Z,7.07
2018-09-02T09:12:04.097Z,7.50
2018-09-02T09:14:32.250Z,6.37
2018-09-02T09:17:00.508Z,6.77
2018-09-02T09:19:28.613Z,7.00
2018-09-02T09:21:56.769Z,6.93
2018-09-02T09:24:24.922Z,7.73
2018-09-02T09:26:53.205Z,7.33
2018-09-02T09:29:21.385Z,7.43
2018-09-02T09:31:49.540Z,7.37
2018-09-02T09:34:17.701Z,7.47
2018-09-02T09:36:45.874Z,7.57
2018-09-02T09:39:14.036Z,7.63
2018-09-02T09:41:42.178Z,7.40
2018-09-02T09:44:10.369Z,7.80
2018-09-02T09:46:38.522Z,7.93
2018-09-02T09:49:06.669Z,7.83
2018-09-02T09:51:34.843Z,8.10
2018-09-02T09:54:03.039Z,8.07
2018-09-02T09:56:31.230Z,8.10
2018-09-02T09:58:59.389Z,7.70
2018-09-02T10:01:27.590Z,9.00
2018-09-02T10:03:55.863Z,8.87
2018-09-02T10:06:24.006Z,9.47
2018-09-02T10:08:52.167Z,8.70
2018-09-02T10:11:20.318Z,10.00
2018-09-02T10:13:48.494Z,10.55
2018-09-02T10:16:16.649Z,9.70
2018-09-02T10:18:44.818Z,9.73
2018-09-02T10:21:12.969Z,8.47
2018-09-02T10:23:41.149Z,9.40
2018-09-02T10:26:09.330Z,9.03
2018-09-02T10:28:37.482Z,9.33
2018-09-02T10:31:05.902Z,9.00
2018-09-02T10:33:34.088Z,8.90
2018-09-02T10:36:02.284Z,9.87
2018-09-02T10:38:30.429Z,8.80
2018-09-02T10:40:58.596Z,9.60
2018-09-02T10:43:26.738Z,9.83
2018-09-02T10:45:54.898Z,9.97
2018-09-02T10:48:23.049Z,10.47
2018-09-02T10:50:51.217Z,10.23
2018-09-02T10:53:19.386Z,9.47
2018-09-02T10:55:47.551Z,9.10
2018-09-02T10:58:15.805Z,9.73
2018-09-02T11:00:44.059Z,11.13
2018-09-02T11:03:12.215Z,9.53
2018-09-02T11:05:40.382Z,9.60
2018-09-02T11:08:08.583Z,9.27
2018-09-02T11:10:36.746Z,9.70
2018-09-02T11:13:04.979Z,10.07
2018-09-02T11:15:33.087Z,9.90
2018-09-02T11:18:01.286Z,9.90
2018-09-02T11:20:29.436Z,9.37
2018-09-02T11:22:57.606Z,9.57
2018-09-02T11:25:25.762Z,10.23
2018-09-02T11:27:53.945Z,10.40
2018-09-02T11:30:22.149Z,9.43
2018-09-02T11:32:50.290Z,10.33
2018-09-02T11:35:18.473Z,10.40
2018-09-02T11:37:46.654Z,10.13
2018-09-02T11:40:14.829Z,10.37
2018-09-02T11:42:42.990Z,9.97
2018-09-02T11:45:11.175Z,9.57
2018-09-02T11:47:39.366Z,9.40
2018-09-02T11:50:07.526Z,9.13
2018-09-02T11:52:35.669Z,9.83
2018-09-02T11:55:03.898Z,8.97
2018-09-02T11:57:32.092Z,10.63
2018-09-02T12:00:00.299Z,9.50
2018-09-02T12:02:28.509Z,9.17
2018-09-02T12:04:56.779Z,9.27
2018-09-02T12:07:24.823Z,9.17
2018-09-02T12:09:53.298Z,9.37
2018-09-02T12:12:21.480Z,9.73
2018-09-02T12:14:49.693Z,8.93
2018-09-02T12:17:17.867Z,9.13
2018-09-02T12:19:46.022Z,9.93
2018-09-02T12:22:14.177Z,9.33
2018-09-02T12:24:42.329Z,9.13
2018-09-02T12:27:10.521Z,8.13
2018-09-02T12:29:38.681Z,10.23
2018-09-02T12:32:06.957Z,8.87
2018-09-02T12:34:35.106Z,8.93
2018-09-02T12:37:03.235Z,8.33
2018-09-02T12:39:31.374Z,9.27
2018-09-02T12:41:59.586Z,10.43
2018-09-02T12:44:27.733Z,9.90
2018-09-02T12:46:55.898Z,9.97
2018-09-02T12:49:24.052Z,10.83
2018-09-02T12:51:53.296Z,10.60
2018-09-02T12:54:21.431Z,11.23
2018-09-02T12:56:49.587Z,11.10
2018-09-02T12:59:17.745Z,11.60
2018-09-02T13:01:45.997Z,12.57
2018-09-02T13:04:14.119Z,12.83
2018-09-02T13:06:42.333Z,12.20
2018-09-02T13:09:10.459Z,11.27
2018-09-02T13:11:38.595Z,12.03
2018-09-02T13:14:06.732Z,11.57
2018-09-02T13:16:34.880Z,12.50
2018-09-02T13:19:03.112Z,11.43
2018-09-02T13:21:31.155Z,11.07
2018-09-02T13:23:59.339Z,10.77
2018-09-02T13:26:27.759Z,10.03
2018-09-02T13:28:55.939Z,10.47
2018-09-02T13:31:24.069Z,10.57
2018-09-02T13:33:52.289Z,11.00
2018-09-02T13:36:20.455Z,10.57
2018-09-02T13:38:48.696Z,11.40
2018-09-02T13:41:16.923Z,10.57
2018-09-02T13:43:45.074Z,11.70
2018-09-02T13:46:13.279Z,12.03
2018-09-02T13:48:41.460Z,10.13
2018-09-02T13:51:09.575Z,10.70
2018-09-02T13:53:37.738Z,9.60
2018-09-02T13:56:05.870Z,10.50
2018-09-02T13:58:34.033Z,11.43
2018-09-02T14:01:02.344Z,10.83
2018-09-02T14:03:30.466Z,12.57
2018-09-02T14:05:58.606Z,11.93
2018-09-02T14:08:26.770Z,13.37
2018-09-02T14:10:54.935Z,14.20
2018-09-02T14:13:23.205Z,13.57
2018-09-02T14:15:51.430Z,13.37
2018-09-02T14:18:19.587Z,13.67
2018-09-02T14:20:47.754Z,15.33
2018-09-02T14:23:15.930Z,14.50
2018-09-02T14:28:18.750Z,15.70
2018-09-02T14:30:46.835Z,15.30
2018-09-02T14:33:15.065Z,16.57
2018-09-02T14:35:43.217Z,15.13
2018-09-02T14:38:11.445Z,16.47
2018-09-02T14:40:39.598Z,15.63
2018-09-02T14:43:07.761Z,16.63
2018-09-02T14:45:36.170Z,16.17
2018-09-02T14:48:04.348Z,16.67
2018-09-02T14:50:32.502Z,16.73
2018-09-02T14:53:00.642Z,18.03
2018-09-02T14:55:28.791Z,18.50
2018-09-02T14:57:56.924Z,17.93
2018-09-02T15:00:25.055Z,18.93
2018-09-02T15:02:53.197Z,18.23
2018-09-02T15:05:21.366Z,24.43
2018-09-02T15:07:49.686Z,19.10
2018-09-02T15:10:17.842Z,18.53
2018-09-02T15:12:45.978Z,18.90
2018-09-02T15:15:14.126Z,17.87
2018-09-02T15:17:42.278Z,18.70
2018-09-02T15:20:10.410Z,18.80
2018-09-02T15:22:38.572Z,17.93
2018-09-02T15:25:06.711Z,18.37
2018-09-02T15:27:34.825Z,17.60
2018-09-02T15:30:02.973Z,20.10
2018-09-02T15:32:31.145Z,18.50
2018-09-02T15:34:59.311Z,19.37
2018-09-02T15:37:27.521Z,19.40
2018-09-02T15:39:55.736Z,19.10
2018-09-02T15:42:23.870Z,19.40
2018-09-02T15:44:52.033Z,20.23
2018-09-02T15:47:20.178Z,20.20
2018-09-02T15:49:48.333Z,21.17
2018-09-02T15:52:16.465Z,22.00
2018-09-02T15:54:44.642Z,20.50
2018-09-02T15:57:12.776Z,21.37
2018-09-02T15:59:40.897Z,21.80
2018-09-02T16:02:09.025Z,22.43
2018-09-02T16:04:37.174Z,22.20
2018-09-02T16:07:05.310Z,22.10
2018-09-02T16:09:33.499Z,21.10
2018-09-02T16:12:01.633Z,21.10
2018-09-02T16:14:29.782Z,24.73
2018-09-02T16:16:57.906Z,22.13
2018-09-02T16:19:26.069Z,21.03
2018-09-02T16:21:54.201Z,21.10
2018-09-02T16:24:22.342Z,21.90
2018-09-02T16:26:50.477Z,21.83
2018-09-02T16:29:18.721Z,22.10
2018-09-02T16:31:46.796Z,21.33
2018-09-02T16:34:15.005Z,21.97
2018-09-02T16:36:43.158Z,20.63
2018-09-02T16:39:11.880Z,22.00
2018-09-02T16:41:40.052Z,22.00
2018-09-02T16:44:08.241Z,22.70
2018-09-02T16:46:36.386Z,22.07
2018-09-02T16:49:04.633Z,22.20
2018-09-02T16:51:32.810Z,23.50
2018-09-02T16:54:00.958Z,23.10
2018-09-02T16:56:29.134Z,22.20
2018-09-02T16:58:57.263Z,21.60
2018-09-02T17:01:25.425Z,20.30
2018-09-02T17:03:56.982Z,21.27
2018-09-02T17:06:25.146Z,22.50
2018-09-02T17:08:53.291Z,21.20
2018-09-02T17:11:21.431Z,22.13
2018-09-02T17:13:49.562Z,22.03
2018-09-02T17:16:17.733Z,25.97
2018-09-02T17:18:45.944Z,22.70
2018-09-02T17:21:14.090Z,21.80
2018-09-02T17:23:42.290Z,22.70
2018-09-02T17:26:11.272Z,22.20
2018-09-02T17:28:39.450Z,23.03
2018-09-02T17:31:07.606Z,22.20
2018-09-02T17:33:35.779Z,23.33
2018-09-02T17:36:03.933Z,23.17
2018-09-02T17:39:35.647Z,23.87
2018-09-02T17:42:03.803Z,22.73
2018-09-02T17:44:31.946Z,24.17
2018-09-02T17:47:00.151Z,24.17
2018-09-02T17:49:28.276Z,25.00
2018-09-02T17:51:56.426Z,25.67
2018-09-02T17:54:24.590Z,24.53
2018-09-02T17:56:52.745Z,27.50
2018-09-02T17:59:20.886Z,27.63
2018-09-02T18:01:49.414Z,27.63
2018-09-02T18:04:17.510Z,28.30
2018-09-02T18:06:45.670Z,28.03
2018-09-02T18:09:13.816Z,29.00
2018-09-02T18:11:41.966Z,30.57
2018-09-02T18:14:10.137Z,28.60
2018-09-02T18:16:38.642Z,30.50
2018-09-02T18:19:06.810Z,27.30
2018-09-02T18:21:34.967Z,28.30
2018-09-02T18:24:03.095Z,28.17
2018-09-02T18:26:31.247Z,28.37
2018-09-02T18:28:59.405Z,27.93
2018-09-02T18:31:27.566Z,29.47
2018-09-02T18:33:55.709Z,29.00
2018-09-02T18:36:23.903Z,28.87
2018-09-02T18:38:52.001Z,28.60
2018-09-02T18:41:20.136Z,28.70
2018-09-02T18:43:48.266Z,28.33
2018-09-02T18:46:16.739Z,29.17
2018-09-02T18:48:44.902Z,29.00
2018-09-02T18:51:13.049Z,28.33
2018-09-02T18:53:41.209Z,29.80
2018-09-02T18:56:09.338Z,29.03
2018-09-02T18:58:37.494Z,28.43
2018-09-02T19:01:05.678Z,26.47
2018-09-02T19:03:33.836Z,28.53
2018-09-02T19:06:01.988Z,28.37
2018-09-02T19:08:30.105Z,27.67
2018-09-02T19:10:58.256Z,28.13
2018-09-02T19:13:26.558Z,28.70
2018-09-02T19:15:54.706Z,28.90
2018-09-02T19:18:22.870Z,28.83
2018-09-02T19:20:51.031Z,28.00
2018-09-02T19:23:19.157Z,29.33
2018-09-02T19:25:47.363Z,28.73
2018-09-02T19:28:15.494Z,30.37
2018-09-02T19:30:43.650Z,30.07
2018-09-02T19:33:11.807Z,29.93
2018-09-02T19:35:40.024Z,30.23
2018-09-02T19:38:08.167Z,30.13
2018-09-02T19:40:36.432Z,30.43
2018-09-02T19:43:04.481Z,31.83
2018-09-02T19:45:32.640Z,30.83
2018-09-02T19:48:00.782Z,29.37
2018-09-02T19:50:28.930Z,29.57
2018-09-02T19:52:57.087Z,26.73
2018-09-02T19:55:25.212Z,25.93
2018-09-02T19:57:53.458Z,27.20
2018-09-02T20:00:21.575Z,27.33
2018-09-02T20:02:49.722Z,27.23
2018-09-02T20:05:17.858Z,29.60
2018-09-02T20:07:46.056Z,28.33
2018-09-02T20:10:14.196Z,26.03
2018-09-02T20:12:42.390Z,29.63
2018-09-02T20:15:10.563Z,27.50
2018-09-02T20:17:38.726Z,27.27
2018-09-02T20:20:06.934Z,26.63
2018-09-02T20:22:35.088Z,27.50
2018-09-02T20:25:03.235Z,24.67
2018-09-02T20:27:31.477Z,25.77
2018-09-02T20:29:59.634Z,24.73
2018-09-02T20:32:27.802Z,25.43
2018-09-02T20:34:55.946Z,25.20
2018-09-02T20:37:24.199Z,24.57
2018-09-02T20:39:52.343Z,24.00
2018-09-02T20:42:20.516Z,25.33
2018-09-02T20:44:48.662Z,24.87
2018-09-02T20:47:16.837Z,24.90
2018-09-02T20:49:45.014Z,25.13
2018-09-02T20:52:13.187Z,26.50
2018-09-02T20:54:41.362Z,26.47
2018-09-02T20:57:09.546Z,24.40
2018-09-02T20:59:37.712Z,27.37
2018-09-02T21:02:06.420Z,26.17
2018-09-02T21:04:34.567Z,28.70
2018-09-02T21:07:02.722Z,28.27
2018-09-02T21:09:30.886Z,28.13
2018-09-02T21:11:59.033Z,28.70
2018-09-02T21:14:27.198Z,28.17
2018-09-02T21:16:55.365Z,27.93
2018-09-02T21:19:23.517Z,28.40
2018-09-02T21:21:51.683Z,26.87
2018-09-02T21:24:19.829Z,27.97
2018-09-02T21:26:47.998Z,27.80
2018-09-02T21:29:16.194Z,28.80
2018-09-02T21:31:44.369Z,27.73
2018-09-02T21:34:12.519Z,27.23
2018-09-02T21:36:40.682Z,28.03
2018-09-02T21:39:09.229Z,28.30
2018-09-02T21:41:37.388Z,28.33
2018-09-02T21:44:05.614Z,28.03
2018-09-02T21:46:33.758Z,28.70
2018-09-02T21:49:01.898Z,27.43
2018-09-02T21:51:30.025Z,28.30
2018-09-02T21:53:58.226Z,27.20
2018-09-02T21:56:26.349Z,26.60
2018-09-02T21:58:54.487Z,26.63
2018-09-02T22:01:22.636Z,27.13
2018-09-02T22:03:50.766Z,28.53
2018-09-02T22:06:18.906Z,28.47
2018-09-02T22:08:47.057Z,27.50
2018-09-02T22:11:15.195Z,27.03
2018-09-02T22:13:43.362Z,26.47
2018-09-02T22:16:11.497Z,26.27
2018-09-02T22:18:39.646Z,26.47
2018-09-02T22:21:07.802Z,26.27
2018-09-02T22:23:35.949Z,27.97
2018-09-02T22:26:04.108Z,27.50
2018-09-02T22:28:32.253Z,28.27
2018-09-02T22:31:00.390Z,30.33
2018-09-02T22:33:28.544Z,28.80
2018-09-02T22:35:56.719Z,30.40
2018-09-02T22:38:24.861Z,31.47
2018-09-02T22:40:53.020Z,31.87
2018-09-02T22:43:21.162Z,32.67
2018-09-02T22:45:49.305Z,32.43
2018-09-02T22:48:17.472Z,32.33
2018-09-02T22:50:45.615Z,34.43
2018-09-02T22:53:13.851Z,33.67
2018-09-02T22:55:41.991Z,34.30
2018-09-02T22:58:10.135Z,36.83
2018-09-02T23:00:38.276Z,36.23
2018-09-02T23:03:06.426Z,35.93
2018-09-02T23:05:34.586Z,36.07
2018-09-02T23:08:02.771Z,36.77
2018-09-02T23:10:30.920Z,37.13
2018-09-02T23:12:59.037Z,37.67
2018-09-02T23:15:27.189Z,37.40
2018-09-02T23:17:55.334Z,37.13
2018-09-02T23:20:23.506Z,38.87
2018-09-02T23:22:51.638Z,37.83
2018-09-02T23:25:19.814Z,39.20
2018-09-02T23:27:47.946Z,38.17
2018-09-02T23:30:16.106Z,37.40
2018-09-02T23:32:44.263Z,37.50
2018-09-02T23:35:12.518Z,38.23
2018-09-02T23:37:40.666Z,38.07
2018-09-02T23:40:08.813Z,39.07
2018-09-02T23:42:36.946Z,38.37
2018-09-02T23:45:05.557Z,39.67
2018-09-02T23:47:33.768Z,36.77
2018-09-02T23:50:01.970Z,39.43
2018-09-02T23:52:30.141Z,37.40
2018-09-02T23:54:58.296Z,36.80
2018-09-02T23:57:26.458Z,38.20
2018-09-02T23:59:54.622Z,38.27
